createdAt,value
2018-05-18T00:00:35.693Z,0
2018-05-18T00:01:45.434Z,0
2018-05-18T00:02:55.441Z,0
2018-05-18T00:04:04.651Z,0
2018-05-18T00:05:14.674Z,0
2018-05-18T00:06:24.423Z,0
2018-05-18T00:07:34.454Z,0
2018-05-18T00:08:44.248Z,0
2018-05-18T00:09:54.258Z,0
2018-05-18T00:11:04.002Z,0
2018-05-18T00:12:13.747Z,0
2018-05-18T00:13:23.488Z,0
2018-05-18T00:14:33.231Z,0
2018-05-18T00:15:42.524Z,0
2018-05-18T00:16:52.270Z,0
2018-05-18T00:18:02.018Z,0
2018-05-18T00:19:11.768Z,0
2018-05-18T00:20:21.241Z,0
2018-05-18T00:21:30.999Z,0
2018-05-18T00:22:40.474Z,0
2018-05-18T00:23:49.950Z,0
2018-05-18T00:24:59.691Z,0
2018-05-18T00:26:09.431Z,0
2018-05-18T00:27:19.437Z,0
2018-05-18T00:28:29.194Z,0
2018-05-18T00:29:38.399Z,0
2018-05-18T00:30:48.416Z,0
2018-05-18T00:31:58.426Z,0
2018-05-18T00:33:08.458Z,0
2018-05-18T00:34:17.666Z,0
2018-05-18T00:35:27.414Z,0
2018-05-18T00:36:37.251Z,0
2018-05-18T00:37:47.274Z,0
2018-05-18T00:38:57.016Z,0
2018-05-18T00:40:06.909Z,0
2018-05-18T00:41:16.702Z,0
2018-05-18T00:42:26.447Z,0
2018-05-18T00:43:36.457Z,0
2018-05-18T00:44:46.464Z,0
2018-05-18T00:45:56.476Z,0
2018-05-18T00:47:06.505Z,0
2018-05-18T00:48:16.247Z,0
2018-05-18T00:49:26.255Z,0
2018-05-18T00:50:36.005Z,0
2018-05-18T00:51:46.021Z,0
2018-05-18T00:52:56.030Z,0
2018-05-18T00:54:06.044Z,0
2018-05-18T00:55:16.049Z,0
2018-05-18T00:56:26.055Z,0
2018-05-18T00:57:35.796Z,0
2018-05-18T00:58:45.010Z,0
2018-05-18T00:59:54.487Z,0
2018-05-18T01:01:03.427Z,0
2018-05-18T01:02:13.166Z,0
2018-05-18T01:03:22.915Z,0
2018-05-18T01:04:32.227Z,0
2018-05-18T01:05:42.238Z,0
2018-05-18T01:06:51.980Z,0
2018-05-18T01:08:01.455Z,0
2018-05-18T01:09:11.475Z,0
2018-05-18T01:10:21.485Z,0
2018-05-18T01:11:31.493Z,0
2018-05-18T01:12:41.502Z,0
2018-05-18T01:13:51.510Z,0
2018-05-18T01:15:01.609Z,0
2018-05-18T01:16:11.350Z,0
2018-05-18T01:17:21.099Z,0
2018-05-18T01:18:31.116Z,0
2018-05-18T01:19:40.590Z,0
2018-05-18T01:20:50.596Z,0
2018-05-18T01:22:00.613Z,0
2018-05-18T01:23:10.367Z,0
2018-05-18T01:24:20.111Z,0
2018-05-18T01:25:30.113Z,0
2018-05-18T01:26:39.593Z,0
2018-05-18T01:27:49.601Z,0
2018-05-18T01:28:59.616Z,0
2018-05-18T01:30:09.627Z,0
2018-05-18T01:31:19.634Z,0
2018-05-18T01:32:29.641Z,0
2018-05-18T01:33:39.379Z,0
2018-05-18T01:34:48.853Z,0
2018-05-18T01:35:58.861Z,0
2018-05-18T01:37:08.337Z,0
2018-05-18T01:38:18.074Z,0
2018-05-18T01:39:28.085Z,0
2018-05-18T01:40:37.827Z,0
2018-05-18T01:41:47.385Z,0
2018-05-18T01:42:57.390Z,0
2018-05-18T01:44:07.400Z,0
2018-05-18T01:45:17.415Z,0
2018-05-18T01:46:27.435Z,0
2018-05-18T01:47:37.449Z,0
2018-05-18T01:48:47.194Z,0
2018-05-18T01:49:56.666Z,0
2018-05-18T01:51:06.140Z,0
2018-05-18T01:52:15.343Z,0
2018-05-18T01:53:24.817Z,0
2018-05-18T01:54:34.555Z,0
2018-05-18T01:55:44.065Z,0
2018-05-18T01:56:54.072Z,0
2018-05-18T01:58:03.890Z,0
2018-05-18T01:59:13.902Z,0
2018-05-18T02:00:23.639Z,0
2018-05-18T02:01:32.575Z,0
2018-05-18T02:02:42.579Z,0
2018-05-18T02:03:52.325Z,0
2018-05-18T02:05:02.064Z,0
2018-05-18T02:06:11.001Z,0
2018-05-18T02:07:21.016Z,0
2018-05-18T02:08:30.755Z,0
2018-05-18T02:09:39.959Z,0
2018-05-18T02:10:49.969Z,0
2018-05-18T02:11:59.979Z,0
2018-05-18T02:13:09.991Z,0
2018-05-18T02:14:20.023Z,5
2018-05-18T02:15:29.764Z,5
2018-05-18T02:16:39.826Z,5
2018-05-18T02:17:49.036Z,5
2018-05-18T02:18:59.127Z,5
2018-05-18T02:20:08.868Z,5
2018-05-18T02:21:18.610Z,5
2018-05-18T02:22:28.621Z,5
2018-05-18T02:23:38.363Z,5
2018-05-18T02:24:48.099Z,5
2018-05-18T02:25:58.112Z,10
2018-05-18T02:27:07.586Z,10
2018-05-18T02:28:17.065Z,10
2018-05-18T02:29:26.805Z,10
2018-05-18T02:30:36.554Z,10
2018-05-18T02:31:46.669Z,10
2018-05-18T02:32:56.690Z,10
2018-05-18T02:34:06.718Z,15
2018-05-18T02:35:16.728Z,15
2018-05-18T02:36:26.743Z,15
2018-05-18T02:37:36.821Z,15
2018-05-18T02:38:46.583Z,15
2018-05-18T02:39:56.591Z,20
2018-05-18T02:41:06.355Z,20
2018-05-18T02:42:16.098Z,20
2018-05-18T02:43:25.837Z,20
2018-05-18T02:44:35.308Z,20
2018-05-18T02:45:45.321Z,25
2018-05-18T02:46:55.066Z,25
2018-05-18T02:48:04.539Z,25
2018-05-18T02:49:14.557Z,25
2018-05-18T02:50:24.317Z,30
2018-05-18T02:51:34.070Z,30
2018-05-18T02:52:44.203Z,30
2018-05-18T02:53:54.242Z,30
2018-05-18T02:55:03.986Z,35
2018-05-18T02:56:14.001Z,35
2018-05-18T02:57:23.743Z,35
2018-05-18T02:58:33.489Z,35
2018-05-18T02:59:43.233Z,40
2018-05-18T03:03:33.772Z,40
2018-05-18T03:04:43.822Z,45
2018-05-18T03:05:53.836Z,45
2018-05-18T03:07:03.865Z,45
2018-05-18T03:08:13.689Z,45
2018-05-18T03:09:23.704Z,45
2018-05-18T03:10:33.731Z,45
2018-05-18T03:11:43.751Z,45
2018-05-18T03:12:53.238Z,50
2018-05-18T03:14:03.247Z,50
2018-05-18T03:15:13.266Z,50
2018-05-18T03:16:23.277Z,50
2018-05-18T03:17:33.286Z,55
2018-05-18T03:18:43.295Z,55
2018-05-18T03:19:53.308Z,55
2018-05-18T03:21:03.583Z,60
2018-05-18T03:22:12.963Z,60
2018-05-18T03:23:22.442Z,60
2018-05-18T03:24:31.652Z,60
2018-05-18T03:25:41.664Z,65
2018-05-18T03:26:51.404Z,65
2018-05-18T03:28:01.411Z,65
2018-05-18T03:29:11.150Z,65
2018-05-18T03:30:20.627Z,70
2018-05-18T03:31:30.756Z,70
2018-05-18T03:32:40.847Z,70
2018-05-18T03:33:50.316Z,75
2018-05-18T03:35:00.055Z,75
2018-05-18T03:36:08.996Z,75
2018-05-18T03:37:19.003Z,75
2018-05-18T03:38:28.473Z,80
2018-05-18T03:39:37.683Z,80
2018-05-18T03:40:47.697Z,80
2018-05-18T03:41:57.439Z,85
2018-05-18T03:43:07.452Z,85
2018-05-18T03:44:17.191Z,85
2018-05-18T03:45:26.941Z,85
2018-05-18T03:46:36.679Z,90
2018-05-18T03:47:46.422Z,90
2018-05-18T03:48:55.902Z,90
2018-05-18T03:50:05.745Z,90
2018-05-18T03:51:15.487Z,90
2018-05-18T03:52:24.960Z,90
2018-05-18T03:53:34.713Z,90
2018-05-18T03:54:44.186Z,90
2018-05-18T03:55:53.656Z,95
2018-05-18T03:57:03.424Z,95
2018-05-18T03:58:13.434Z,95
2018-05-18T03:59:22.659Z,95
2018-05-18T04:00:32.403Z,100
2018-05-18T04:01:41.883Z,100
2018-05-18T04:02:51.888Z,100
2018-05-18T04:04:01.625Z,100
2018-05-18T04:05:10.828Z,105
2018-05-18T04:06:20.565Z,105
2018-05-18T04:07:30.311Z,105
2018-05-18T04:08:40.054Z,105
2018-05-18T04:09:50.068Z,105
2018-05-18T04:10:59.551Z,110
2018-05-18T04:12:09.570Z,110
2018-05-18T04:13:19.579Z,110
2018-05-18T04:14:29.324Z,110
2018-05-18T04:15:38.794Z,115
2018-05-18T04:16:48.537Z,115
2018-05-18T04:17:58.273Z,115
2018-05-18T04:19:07.750Z,115
2018-05-18T04:20:17.493Z,115
2018-05-18T04:21:27.507Z,120
2018-05-18T04:22:37.254Z,120
2018-05-18T04:23:47.277Z,120
2018-05-18T04:24:57.337Z,120
2018-05-18T04:26:06.907Z,125
2018-05-18T04:27:16.913Z,125
2018-05-18T04:28:26.389Z,125
2018-05-18T04:29:36.144Z,125
2018-05-18T04:30:46.157Z,125
2018-05-18T04:31:56.160Z,125
2018-05-18T04:33:05.916Z,125
2018-05-18T04:34:15.392Z,125
2018-05-18T04:35:25.409Z,125
2018-05-18T04:36:35.146Z,125
2018-05-18T04:37:44.886Z,130
2018-05-18T04:38:54.889Z,130
2018-05-18T04:40:04.896Z,130
2018-05-18T04:41:14.637Z,130
2018-05-18T04:42:24.374Z,130
2018-05-18T04:43:34.379Z,130
2018-05-18T04:44:44.390Z,130
2018-05-18T04:45:54.408Z,135
2018-05-18T04:47:03.612Z,135
2018-05-18T04:48:13.669Z,135
2018-05-18T04:49:23.416Z,135
2018-05-18T04:50:33.420Z,135
2018-05-18T04:51:43.427Z,135
2018-05-18T04:52:53.168Z,135
2018-05-18T04:54:02.907Z,140
2018-05-18T04:55:12.916Z,140
2018-05-18T04:56:22.654Z,140
2018-05-18T04:57:32.131Z,140
2018-05-18T04:58:41.874Z,140
2018-05-18T04:59:51.885Z,140
2018-05-18T05:01:01.648Z,140
2018-05-18T05:02:10.851Z,140
2018-05-18T05:03:20.864Z,140
2018-05-18T05:04:30.604Z,145
2018-05-18T05:05:40.802Z,145
2018-05-18T05:06:50.806Z,145
2018-05-18T05:08:00.818Z,145
2018-05-18T05:09:10.291Z,145
2018-05-18T05:10:20.302Z,145
2018-05-18T05:11:30.049Z,145
2018-05-18T05:12:40.124Z,145
2018-05-18T05:13:49.873Z,145
2018-05-18T05:14:59.622Z,150
2018-05-18T05:16:09.370Z,150
2018-05-18T05:17:19.128Z,150
2018-05-18T05:18:29.149Z,150
2018-05-18T05:19:39.160Z,150
2018-05-18T05:20:48.901Z,150
2018-05-18T05:21:58.373Z,150
2018-05-18T05:23:08.382Z,150
2018-05-18T05:24:18.400Z,150
2018-05-18T05:25:28.140Z,150
2018-05-18T05:26:37.615Z,155
2018-05-18T05:27:47.357Z,155
2018-05-18T05:28:57.365Z,155
2018-05-18T05:30:07.374Z,155
2018-05-18T05:31:17.385Z,155
2018-05-18T05:32:27.396Z,155
2018-05-18T05:33:36.615Z,155
2018-05-18T05:34:46.632Z,155
2018-05-18T05:35:56.641Z,155
2018-05-18T05:37:06.379Z,155
2018-05-18T05:38:15.854Z,155
2018-05-18T05:39:25.876Z,160
2018-05-18T05:40:35.620Z,160
2018-05-18T05:41:45.633Z,160
2018-05-18T05:42:55.649Z,160
2018-05-18T05:44:05.656Z,160
2018-05-18T05:45:15.126Z,160
2018-05-18T05:46:25.149Z,160
2018-05-18T05:47:35.167Z,160
2018-05-18T05:48:45.178Z,160
2018-05-18T05:49:54.659Z,160
2018-05-18T05:51:04.410Z,160
2018-05-18T05:52:14.250Z,160
2018-05-18T05:53:23.729Z,165
2018-05-18T05:54:33.482Z,165
2018-05-18T05:55:43.227Z,165
2018-05-18T05:56:52.976Z,165
2018-05-18T05:58:02.995Z,165
2018-05-18T05:59:12.474Z,160
2018-05-18T06:00:22.585Z,160
2018-05-18T06:01:32.600Z,160
2018-05-18T06:02:42.353Z,160
2018-05-18T06:03:52.093Z,165
2018-05-18T06:05:02.134Z,160
2018-05-18T06:06:11.950Z,160
2018-05-18T06:07:21.993Z,165
2018-05-18T06:08:32.000Z,165
2018-05-18T06:09:42.012Z,165
2018-05-18T06:10:51.762Z,165
2018-05-18T06:12:01.602Z,165
2018-05-18T06:13:11.374Z,165
2018-05-18T06:14:21.431Z,165
2018-05-18T06:15:31.292Z,165
2018-05-18T06:16:41.340Z,165
2018-05-18T06:17:51.079Z,165
2018-05-18T06:19:01.081Z,165
2018-05-18T06:20:10.557Z,165
2018-05-18T06:21:20.566Z,165
2018-05-18T06:22:30.311Z,165
2018-05-18T06:23:40.060Z,165
2018-05-18T06:24:50.068Z,170
2018-05-18T06:26:00.081Z,170
2018-05-18T06:27:09.832Z,170
2018-05-18T06:28:19.846Z,170
2018-05-18T06:29:29.324Z,170
2018-05-18T06:30:39.064Z,170
2018-05-18T06:31:48.809Z,170
2018-05-18T06:32:58.828Z,170
2018-05-18T06:34:08.574Z,170
2018-05-18T06:35:19.502Z,170
2018-05-18T06:36:29.609Z,170
2018-05-18T06:37:38.822Z,170
2018-05-18T06:38:48.839Z,170
2018-05-18T06:39:58.592Z,175
2018-05-18T06:41:08.069Z,175
2018-05-18T06:42:17.808Z,175
2018-05-18T06:43:27.364Z,175
2018-05-18T06:44:36.892Z,175
2018-05-18T06:45:46.641Z,175
2018-05-18T06:46:57.064Z,175
2018-05-18T06:48:06.809Z,175
2018-05-18T06:49:16.277Z,175
2018-05-18T06:50:26.285Z,175
2018-05-18T06:51:36.030Z,175
2018-05-18T06:52:46.401Z,175
2018-05-18T06:53:56.417Z,175
2018-05-18T06:55:06.182Z,180
2018-05-18T06:56:15.926Z,180
2018-05-18T06:57:25.669Z,180
2018-05-18T06:58:35.139Z,180
2018-05-18T06:59:44.899Z,180
2018-05-18T07:00:54.912Z,180
2018-05-18T07:02:04.929Z,180
2018-05-18T07:03:14.403Z,180
2018-05-18T07:04:24.419Z,180
2018-05-18T07:05:33.635Z,180
2018-05-18T07:06:43.477Z,180
2018-05-18T07:07:53.230Z,180
2018-05-18T07:09:03.041Z,185
2018-05-18T07:10:12.789Z,185
2018-05-18T07:11:22.803Z,185
2018-05-18T07:12:32.565Z,185
2018-05-18T07:13:42.596Z,185
2018-05-18T07:14:51.809Z,185
2018-05-18T07:16:01.821Z,185
2018-05-18T07:17:11.056Z,185
2018-05-18T07:18:20.811Z,185
2018-05-18T07:19:30.393Z,185
2018-05-18T07:20:39.603Z,185
2018-05-18T07:21:49.621Z,185
2018-05-18T07:22:59.784Z,185
2018-05-18T07:24:09.814Z,185
2018-05-18T07:25:19.020Z,185
2018-05-18T07:26:29.036Z,185
2018-05-18T07:27:39.055Z,185
2018-05-18T07:28:48.262Z,185
2018-05-18T07:29:58.088Z,185
2018-05-18T07:31:08.119Z,190
2018-05-18T07:32:17.866Z,185
2018-05-18T07:33:27.612Z,185
2018-05-18T07:34:37.622Z,185
2018-05-18T07:35:47.630Z,185
2018-05-18T07:36:57.649Z,185
2018-05-18T07:38:07.662Z,190
2018-05-18T07:39:17.137Z,190
2018-05-18T07:40:26.612Z,190
2018-05-18T07:41:36.394Z,190
2018-05-18T07:42:46.136Z,190
2018-05-18T07:43:56.126Z,190
2018-05-18T07:45:05.889Z,190
2018-05-18T07:46:15.633Z,190
2018-05-18T07:47:25.638Z,190
2018-05-18T07:48:35.381Z,190
2018-05-18T07:49:45.399Z,190
2018-05-18T07:50:55.148Z,190
2018-05-18T07:52:04.895Z,190
2018-05-18T07:53:14.114Z,195
2018-05-18T07:54:23.715Z,195
2018-05-18T07:55:33.729Z,195
2018-05-18T07:56:43.208Z,195
2018-05-18T07:57:53.219Z,195
2018-05-18T07:59:03.233Z,195
2018-05-18T08:00:12.982Z,195
2018-05-18T08:01:22.731Z,195
2018-05-18T08:02:32.478Z,195
2018-05-18T08:03:41.973Z,195
2018-05-18T08:04:51.466Z,195
2018-05-18T08:06:01.479Z,195
2018-05-18T08:07:11.503Z,195
2018-05-18T08:08:21.513Z,200
2018-05-18T08:09:30.991Z,200
2018-05-18T08:10:40.743Z,200
2018-05-18T08:11:50.223Z,200
2018-05-18T08:12:59.430Z,200
2018-05-18T08:14:09.178Z,205
2018-05-18T08:15:19.480Z,200
2018-05-18T08:16:28.970Z,200
2018-05-18T08:17:39.033Z,200
2018-05-18T08:18:48.508Z,200
2018-05-18T08:19:58.262Z,200
2018-05-18T08:21:07.475Z,200
2018-05-18T08:22:16.951Z,200
2018-05-18T08:23:26.701Z,205
2018-05-18T08:24:36.709Z,205
2018-05-18T08:25:46.460Z,205
2018-05-18T08:26:55.942Z,205
2018-05-18T08:28:05.956Z,205
2018-05-18T08:29:15.970Z,205
2018-05-18T08:30:25.985Z,205
2018-05-18T08:31:35.995Z,205
2018-05-18T08:32:45.748Z,205
2018-05-18T08:33:55.759Z,205
2018-05-18T08:35:05.774Z,205
2018-05-18T08:36:15.784Z,210
2018-05-18T08:37:25.816Z,210
2018-05-18T08:38:35.573Z,210
2018-05-18T08:39:45.588Z,210
2018-05-18T08:40:55.699Z,210
2018-05-18T08:42:05.717Z,210
2018-05-18T08:43:15.472Z,210
2018-05-18T08:44:25.707Z,210
2018-05-18T08:45:35.480Z,210
2018-05-18T08:46:44.689Z,210
2018-05-18T08:47:54.438Z,210
2018-05-18T08:49:04.198Z,215
2018-05-18T08:50:14.357Z,215
2018-05-18T08:51:24.036Z,215
2018-05-18T08:52:33.350Z,215
2018-05-18T08:53:42.833Z,215
2018-05-18T08:54:52.858Z,220
2018-05-18T08:56:02.876Z,215
2018-05-18T08:57:12.354Z,215
2018-05-18T08:58:22.101Z,215
2018-05-18T08:59:31.941Z,215
2018-05-18T09:00:42.014Z,215
2018-05-18T09:01:52.034Z,220
2018-05-18T09:03:01.791Z,220
2018-05-18T09:04:11.539Z,220
2018-05-18T09:05:21.309Z,220
2018-05-18T09:06:31.057Z,220
2018-05-18T09:07:40.803Z,220
2018-05-18T09:08:50.368Z,220
2018-05-18T09:10:00.393Z,220
2018-05-18T09:11:09.872Z,225
2018-05-18T09:12:19.932Z,225
2018-05-18T09:13:29.947Z,225
2018-05-18T09:14:39.694Z,225
2018-05-18T09:15:49.212Z,225
2018-05-18T09:16:58.691Z,225
2018-05-18T09:18:07.914Z,225
2018-05-18T09:19:17.941Z,225
2018-05-18T09:20:27.684Z,225
2018-05-18T09:21:37.697Z,225
2018-05-18T09:22:47.453Z,225
2018-05-18T09:23:57.217Z,225
2018-05-18T09:25:06.960Z,230
2018-05-18T09:26:16.977Z,230
2018-05-18T09:27:26.453Z,230
2018-05-18T09:28:36.196Z,240
2018-05-18T09:29:45.940Z,235
2018-05-18T09:30:55.956Z,240
2018-05-18T09:32:05.971Z,245
2018-05-18T09:33:15.727Z,245
2018-05-18T09:34:25.668Z,245
2018-05-18T09:35:35.149Z,240
2018-05-18T09:36:44.637Z,240
2018-05-18T09:37:54.379Z,240
2018-05-18T09:39:03.871Z,240
2018-05-18T09:40:13.617Z,240
2018-05-18T09:41:23.100Z,245
2018-05-18T09:42:33.129Z,245
2018-05-18T09:43:42.343Z,245
2018-05-18T09:44:52.366Z,245
2018-05-18T09:46:02.385Z,245
2018-05-18T09:47:12.402Z,245
2018-05-18T09:48:22.151Z,250
2018-05-18T09:49:31.092Z,250
2018-05-18T09:50:41.116Z,250
2018-05-18T09:51:50.875Z,255
2018-05-18T09:53:00.897Z,250
2018-05-18T09:54:10.664Z,250
2018-05-18T09:55:21.271Z,245
2018-05-18T09:56:31.266Z,250
2018-05-18T09:57:41.289Z,245
2018-05-18T09:58:51.042Z,245
2018-05-18T10:00:01.056Z,245
2018-05-18T10:01:11.081Z,245
2018-05-18T10:02:20.943Z,245
2018-05-18T10:03:30.692Z,245
2018-05-18T10:04:40.711Z,245
2018-05-18T10:05:50.458Z,245
2018-05-18T10:07:00.576Z,250
2018-05-18T10:08:10.064Z,255
2018-05-18T10:09:20.083Z,250
2018-05-18T10:10:29.839Z,250
2018-05-18T10:11:39.317Z,250
2018-05-18T10:12:49.074Z,250
2018-05-18T10:13:59.092Z,250
2018-05-18T10:15:09.106Z,250
2018-05-18T10:16:18.589Z,250
2018-05-18T10:17:28.598Z,250
2018-05-18T10:18:38.828Z,255
2018-05-18T10:19:48.394Z,255
2018-05-18T10:20:57.336Z,255
2018-05-18T10:22:06.819Z,255
2018-05-18T10:23:16.832Z,255
2018-05-18T10:24:26.584Z,260
2018-05-18T10:25:36.416Z,255
2018-05-18T10:26:45.896Z,255
2018-05-18T10:27:55.923Z,260
2018-05-18T10:29:05.410Z,260
2018-05-18T10:30:15.430Z,260
2018-05-18T10:31:25.445Z,260
2018-05-18T10:32:34.661Z,260
2018-05-18T10:33:44.678Z,260
2018-05-18T10:34:54.698Z,260
2018-05-18T10:36:04.450Z,265
2018-05-18T10:37:14.551Z,265
2018-05-18T10:38:24.563Z,265
2018-05-18T10:39:34.391Z,265
2018-05-18T10:40:43.619Z,265
2018-05-18T10:41:53.633Z,265
2018-05-18T10:43:03.114Z,265
2018-05-18T10:44:12.595Z,270
2018-05-18T10:45:22.884Z,270
2018-05-18T10:46:32.903Z,270
2018-05-18T10:47:42.655Z,270
2018-05-18T10:48:52.680Z,270
2018-05-18T10:50:02.434Z,270
2018-05-18T10:51:12.190Z,275
2018-05-18T10:52:22.005Z,275
2018-05-18T10:53:31.488Z,275
2018-05-18T10:54:41.235Z,275
2018-05-18T10:55:50.981Z,275
2018-05-18T10:57:00.998Z,275
2018-05-18T10:58:10.744Z,280
2018-05-18T10:59:19.955Z,280
2018-05-18T11:00:30.016Z,280
2018-05-18T11:01:39.766Z,285
2018-05-18T11:02:49.780Z,280
2018-05-18T11:03:59.806Z,280
2018-05-18T11:05:09.827Z,285
2018-05-18T11:06:19.856Z,285
2018-05-18T11:07:29.346Z,285
2018-05-18T11:08:39.361Z,290
2018-05-18T11:09:49.383Z,290
2018-05-18T11:10:59.404Z,290
2018-05-18T11:12:09.157Z,295
2018-05-18T11:13:19.172Z,300
2018-05-18T11:14:29.067Z,295
2018-05-18T11:15:39.080Z,295
2018-05-18T11:16:48.565Z,295
2018-05-18T11:17:58.771Z,300
2018-05-18T11:19:08.266Z,300
2018-05-18T11:20:18.474Z,305
2018-05-18T11:21:28.227Z,305
2018-05-18T11:22:38.242Z,310
2018-05-18T11:23:48.258Z,310
2018-05-18T11:24:58.011Z,315
2018-05-18T11:26:07.777Z,365
2018-05-18T11:27:16.987Z,1265
2018-05-18T11:28:27.066Z,2455
2018-05-18T11:29:37.184Z,2540
2018-05-18T11:30:46.679Z,2570
2018-05-18T11:31:55.901Z,2620
2018-05-18T11:33:05.152Z,2500
2018-05-18T11:34:14.916Z,2650
2018-05-18T11:35:24.667Z,2780
2018-05-18T11:36:34.423Z,3030
2018-05-18T11:37:44.177Z,3100
2018-05-18T11:38:53.933Z,2985
2018-05-18T11:40:03.694Z,2665
2018-05-18T11:41:13.189Z,2790
2018-05-18T11:42:23.258Z,3005
2018-05-18T11:43:33.284Z,2855
2018-05-18T11:44:43.326Z,2935
2018-05-18T11:45:53.082Z,3025
2018-05-18T11:47:02.677Z,3080
2018-05-18T11:48:12.530Z,2945
2018-05-18T11:49:22.286Z,2810
2018-05-18T11:50:32.320Z,2900
2018-05-18T11:51:42.076Z,2755
2018-05-18T11:52:52.099Z,2790
2018-05-18T11:54:01.597Z,2770
2018-05-18T11:55:11.366Z,2360
2018-05-18T11:56:21.122Z,2465
2018-05-18T11:57:31.147Z,2720
2018-05-18T11:58:40.723Z,2720
2018-05-18T11:59:50.751Z,2660
2018-05-18T12:01:00.514Z,2585
2018-05-18T12:02:10.011Z,2435
2018-05-18T12:03:20.044Z,2400
2018-05-18T12:04:29.274Z,2735
2018-05-18T12:05:39.035Z,2950
2018-05-18T12:06:48.851Z,2770
2018-05-18T12:07:58.887Z,2615
2018-05-18T12:09:08.925Z,2815
2018-05-18T12:10:18.684Z,2880
2018-05-18T12:11:28.446Z,2775
2018-05-18T12:12:38.217Z,2815
2018-05-18T12:13:47.708Z,2850
2018-05-18T12:14:57.212Z,2815
2018-05-18T12:16:07.070Z,2715
2018-05-18T12:17:17.102Z,2735
2018-05-18T12:18:26.886Z,2625
2018-05-18T12:19:36.924Z,2715
2018-05-18T12:20:46.688Z,2970
2018-05-18T12:21:55.916Z,2855
2018-05-18T12:23:05.954Z,2515
2018-05-18T12:24:15.722Z,2470
2018-05-18T12:25:25.489Z,2480
2018-05-18T12:26:35.520Z,2640
2018-05-18T12:27:45.288Z,2495
2018-05-18T12:28:54.785Z,2520
2018-05-18T12:30:04.556Z,2720
2018-05-18T12:31:13.787Z,2685
2018-05-18T12:32:23.839Z,2760
2018-05-18T12:33:33.876Z,2750
2018-05-18T12:34:43.920Z,2585
2018-05-18T12:35:53.958Z,2660
2018-05-18T12:37:03.718Z,2750
2018-05-18T12:38:14.266Z,2715
2018-05-18T12:39:24.150Z,2800
2018-05-18T12:40:33.925Z,2635
2018-05-18T12:41:43.425Z,2605
2018-05-18T12:42:52.928Z,2400
2018-05-18T12:44:02.707Z,2250
2018-05-18T12:45:12.748Z,2210
2018-05-18T12:46:22.793Z,2275
2018-05-18T12:47:32.844Z,2245
2018-05-18T12:48:42.610Z,2175
2018-05-18T12:49:52.386Z,2195
2018-05-18T12:51:02.430Z,2350
2018-05-18T12:52:12.215Z,2160
2018-05-18T12:53:21.982Z,2080
2018-05-18T12:54:31.758Z,2020
2018-05-18T12:55:41.811Z,2005
2018-05-18T12:56:51.955Z,2045
2018-05-18T12:58:01.988Z,2060
2018-05-18T12:59:11.761Z,2060
2018-05-18T13:00:21.807Z,2415
2018-05-18T13:01:31.921Z,2635
2018-05-18T13:02:41.961Z,2545
2018-05-18T13:03:52.017Z,2765
2018-05-18T13:05:02.081Z,3435
2018-05-18T13:06:11.854Z,3300
2018-05-18T13:07:21.352Z,2890
2018-05-18T13:08:31.231Z,3145
2018-05-18T13:09:41.270Z,3260
2018-05-18T13:10:51.038Z,3065
2018-05-18T13:12:01.118Z,3010
2018-05-18T13:13:11.161Z,3345
2018-05-18T13:14:21.264Z,3350
2018-05-18T13:15:31.028Z,3510
2018-05-18T13:16:41.056Z,3625
2018-05-18T13:17:51.091Z,3445
2018-05-18T13:19:01.129Z,3285
2018-05-18T13:20:11.167Z,3390
2018-05-18T13:21:21.208Z,3365
2018-05-18T13:22:30.976Z,3600
2018-05-18T13:23:41.008Z,3785
2018-05-18T13:24:50.774Z,3780
2018-05-18T13:26:00.809Z,3765
2018-05-18T13:27:10.316Z,3715
2018-05-18T13:28:20.363Z,3310
2018-05-18T13:29:29.857Z,3290
2018-05-18T13:30:39.544Z,3410
2018-05-18T13:31:49.410Z,3240
2018-05-18T13:32:59.183Z,3305
2018-05-18T13:34:08.694Z,3405
2018-05-18T13:35:18.462Z,3315
2018-05-18T13:36:27.964Z,3385
2018-05-18T13:37:38.005Z,3445
2018-05-18T13:38:48.824Z,3440
2018-05-18T13:39:58.693Z,3310
2018-05-18T13:41:08.521Z,3230
2018-05-18T13:42:18.566Z,3275
2018-05-18T13:43:28.386Z,3450
2018-05-18T13:44:38.427Z,3395
2018-05-18T13:45:48.512Z,3075
2018-05-18T13:46:58.546Z,3165
2018-05-18T13:48:08.582Z,3395
2018-05-18T13:49:18.349Z,3410
2018-05-18T13:50:28.118Z,3185
2018-05-18T13:51:38.191Z,3245
2018-05-18T13:52:48.239Z,3340
2018-05-18T13:53:57.742Z,3450
2018-05-18T13:55:07.503Z,3395
2018-05-18T13:56:17.272Z,3480
2018-05-18T13:57:27.229Z,3435
2018-05-18T13:58:37.262Z,3470
2018-05-18T13:59:46.491Z,3420
2018-05-18T14:00:56.258Z,3395
2018-05-18T14:02:05.822Z,3535
2018-05-18T14:03:15.329Z,3605
2018-05-18T14:04:25.093Z,3430
2018-05-18T14:05:34.867Z,3265
2018-05-18T14:06:44.635Z,3280
2018-05-18T14:07:54.138Z,3225
2018-05-18T14:09:03.911Z,3170
2018-05-18T14:10:13.675Z,3150
2018-05-18T14:11:23.445Z,3290
2018-05-18T14:12:33.213Z,3260
2018-05-18T14:13:43.255Z,3195
2018-05-18T14:14:53.285Z,3020
2018-05-18T14:16:03.335Z,3095
2018-05-18T14:17:13.387Z,3185
2018-05-18T14:18:23.535Z,3280
2018-05-18T14:19:33.310Z,3245
2018-05-18T14:20:42.813Z,3140
2018-05-18T14:21:52.846Z,3165
2018-05-18T14:23:02.615Z,3220
2018-05-18T14:24:12.115Z,3245
2018-05-18T14:25:22.165Z,3105
2018-05-18T14:26:32.618Z,3170
2018-05-18T14:27:42.653Z,3095
2018-05-18T14:28:52.425Z,3130
2018-05-18T14:30:02.201Z,3085
2018-05-18T14:31:11.703Z,3085
2018-05-18T14:32:21.206Z,3095
2018-05-18T14:33:31.379Z,3055
2018-05-18T14:34:41.422Z,3145
2018-05-18T14:35:51.455Z,3030
2018-05-18T14:37:01.512Z,3060
2018-05-18T14:38:11.528Z,3130
2018-05-18T14:39:21.702Z,3050
2018-05-18T14:40:31.742Z,3000
2018-05-18T14:41:41.251Z,3105
2018-05-18T14:42:51.016Z,2960
2018-05-18T14:44:01.384Z,2920
2018-05-18T14:45:11.253Z,2925
2018-05-18T14:46:21.292Z,2925
2018-05-18T14:47:31.057Z,3005
2018-05-18T14:48:40.828Z,2990
2018-05-18T14:49:50.602Z,2825
2018-05-18T14:51:00.105Z,2870
2018-05-18T14:52:09.338Z,2975
2018-05-18T14:53:19.105Z,2860
2018-05-18T14:54:28.335Z,2885
2018-05-18T14:55:38.097Z,2940
2018-05-18T14:56:47.593Z,2890
2018-05-18T14:57:57.364Z,2840
2018-05-18T14:59:07.405Z,2810
2018-05-18T15:00:17.445Z,2970
2018-05-18T15:01:27.478Z,2865
2018-05-18T15:02:36.982Z,2750
2018-05-18T15:03:46.484Z,2825
2018-05-18T15:04:56.247Z,2995
2018-05-18T15:06:06.021Z,2915
2018-05-18T15:07:16.055Z,2670
2018-05-18T15:08:26.098Z,2830
2018-05-18T15:09:35.868Z,2750
2018-05-18T15:10:45.732Z,2755
2018-05-18T15:11:55.766Z,2675
2018-05-18T15:13:05.543Z,2595
2018-05-18T15:14:15.041Z,2745
2018-05-18T15:15:25.091Z,2680
2018-05-18T15:16:34.714Z,2720
2018-05-18T15:17:43.939Z,2665
2018-05-18T15:18:53.701Z,2725
2018-05-18T15:20:03.731Z,2730
2018-05-18T15:21:13.768Z,2610
2018-05-18T15:22:23.812Z,2595
2018-05-18T15:23:33.685Z,2650
2018-05-18T15:24:43.450Z,2675
2018-05-18T15:25:53.216Z,2850
2018-05-18T15:27:03.252Z,2860
2018-05-18T15:28:13.384Z,2735
2018-05-18T15:29:23.153Z,2500
2018-05-18T15:30:33.186Z,2585
2018-05-18T15:31:42.957Z,2705
2018-05-18T15:32:52.995Z,2720
2018-05-18T15:34:02.817Z,2635
2018-05-18T15:35:12.583Z,2695
2018-05-18T15:36:22.619Z,2610
2018-05-18T15:37:33.205Z,2655
2018-05-18T15:38:43.242Z,2680
2018-05-18T15:39:53.273Z,2650
2018-05-18T15:41:02.777Z,2580
2018-05-18T15:42:12.544Z,2505
2018-05-18T15:43:22.575Z,2605
2018-05-18T15:44:32.629Z,2580
2018-05-18T15:45:42.764Z,2510
2018-05-18T15:46:52.260Z,2380
2018-05-18T15:48:01.228Z,1890
2018-05-18T15:49:10.990Z,1355
2018-05-18T15:50:20.490Z,1320
2018-05-18T15:51:30.525Z,785
2018-05-18T15:52:40.553Z,685
2018-05-18T15:53:50.582Z,890
2018-05-18T15:55:00.362Z,605
2018-05-18T15:56:09.866Z,495
2018-05-18T15:57:19.966Z,440
2018-05-18T15:58:29.468Z,515
2018-05-18T15:59:38.974Z,465
2018-05-18T16:00:48.470Z,500
2018-05-18T16:01:58.501Z,635
2018-05-18T16:03:08.256Z,735
2018-05-18T16:04:18.215Z,610
2018-05-18T16:05:28.250Z,1025
2018-05-18T16:06:37.747Z,1315
2018-05-18T16:07:47.774Z,1375